Time;durP1;ratioP1;P1;durP2;ratioP2;P2;SDS_P1;SDS_P2;PMS_P1;PMS_P2;Temp;Humidity;BMP_temperature;BMP_pressure;BME280_temperature;BME280_humidity;BME280_pressure;Samples;Min_cycle;Max_cycle;Signal;HPM_P1;HPM_P2
2022/09/11 00:00:54;;;;;;;35.67;21.38;;;;;;;;;;5026281;28;20448;-66
2022/09/11 00:03:23;;;;;;;29.50;18.80;;;;;;;;;;5007227;28;20099;-66
2022/09/11 00:05:49;;;;;;;34.50;20.23;;;;;;;;;;5024736;28;20037;-66
2022/09/11 00:08:17;;;;;;;31.20;18.73;;;;;;;;;;5030871;28;20510;-65
2022/09/11 00:10:43;;;;;;;30.75;18.52;;;;;;;;;;5017092;28;20407;-66
2022/09/11 00:13:11;;;;;;;31.52;19.10;;;;;;;;;;5031433;28;20033;-65
2022/09/11 00:15:38;;;;;;;29.98;17.88;;;;;;;;;;5023857;28;20407;-66
2022/09/11 00:18:05;;;;;;;30.80;19.85;;;;;;;;;;5021538;28;20041;-66
2022/09/11 00:20:32;;;;;;;32.45;18.92;;;;;;;;;;5024715;28;20687;-66
2022/09/11 00:23:00;;;;;;;27.70;17.92;;;;;;;;;;5014516;28;20095;-66
2022/09/11 00:25:27;;;;;;;27.92;18.23;;;;;;;;;;5030377;28;20049;-66
2022/09/11 00:27:54;;;;;;;27.88;17.00;;;;;;;;;;5040553;28;20053;-66
2022/09/11 00:30:21;;;;;;;26.92;17.45;;;;;;;;;;5025098;28;20099;-66
2022/09/11 00:32:48;;;;;;;24.90;15.75;;;;;;;;;;5013996;28;20124;-66
2022/09/11 00:35:14;;;;;;;25.23;16.02;;;;;;;;;;5021393;28;20045;-66
2022/09/11 00:37:40;;;;;;;28.00;16.05;;;;;;;;;;5030058;28;20036;-66
2022/09/11 00:40:07;;;;;;;28.10;17.80;;;;;;;;;;5030176;28;20040;-66
2022/09/11 00:42:33;;;;;;;28.88;17.65;;;;;;;;;;5022794;28;20430;-66
2022/09/11 00:45:00;;;;;;;30.50;18.80;;;;;;;;;;5031944;28;20569;-66
2022/09/11 00:47:27;;;;;;;25.65;16.75;;;;;;;;;;5039916;28;20679;-66
2022/09/11 00:49:55;;;;;;;25.88;17.35;;;;;;;;;;5024600;28;20502;-66
2022/09/11 00:52:26;;;;;;;26.02;16.98;;;;;;;;;;5032205;28;20096;-66
2022/09/11 00:54:59;;;;;;;31.38;18.35;;;;;;;;;;5027299;28;20045;-66
2022/09/11 00:57:27;;;;;;;31.20;18.65;;;;;;;;;;5021622;28;20041;-66
2022/09/11 00:59:57;;;;;;;32.03;18.70;;;;;;;;;;5019626;28;20044;-66
2022/09/11 01:02:24;;;;;;;31.13;19.23;;;;;;;;;;5024176;28;20496;-67
2022/09/11 01:04:50;;;;;;;31.58;19.95;;;;;;;;;;5029361;28;20053;-66
2022/09/11 01:07:17;;;;;;;36.83;21.42;;;;;;;;;;5031212;28;20675;-66
2022/09/11 01:09:43;;;;;;;51.72;22.27;;;;;;;;;;5023597;28;20543;-66
2022/09/11 01:12:19;;;;;;;42.95;20.98;;;;;;;;;;5034897;28;20116;-66
2022/09/11 01:14:53;;;;;;;76.65;22.00;;;;;;;;;;5031200;28;20041;-66
2022/09/11 01:17:25;;;;;;;73.35;21.48;;;;;;;;;;5036800;28;20049;-66
2022/09/11 01:20:06;;;;;;;39.92;17.83;;;;;;;;;;5029087;28;20507;-66
2022/09/11 01:22:32;;;;;;;;;;;;;;;;;;5020893;28;20065;-66
2022/09/11 01:25:14;;;;;;;45.30;18.73;;;;;;;;;;5027474;28;19971;-66
2022/09/11 01:27:43;;;;;;;41.45;18.88;;;;;;;;;;5039423;28;20417;-65
2022/09/11 01:30:15;;;;;;;44.72;18.08;;;;;;;;;;5022580;28;20102;-66
2022/09/11 01:32:41;;;;;;;49.92;18.75;;;;;;;;;;5028060;28;20498;-66
2022/09/11 01:35:12;;;;;;;41.72;17.92;;;;;;;;;;5020404;28;20396;-66
2022/09/11 01:37:46;;;;;;;40.20;19.30;;;;;;;;;;5023767;28;20034;-66
2022/09/11 01:40:17;;;;;;;34.80;18.48;;;;;;;;;;5040733;28;20470;-65
2022/09/11 01:42:44;;;;;;;31.77;17.45;;;;;;;;;;5046613;28;20038;-66
2022/09/11 01:45:12;;;;;;;37.03;18.45;;;;;;;;;;5026311;28;20045;-66
2022/09/11 01:47:41;;;;;;;33.92;17.45;;;;;;;;;;5024212;28;20060;-66
2022/09/11 01:50:09;;;;;;;36.05;16.77;;;;;;;;;;5031054;28;20052;-66
2022/09/11 01:52:46;;;;;;;30.83;16.08;;;;;;;;;;5029593;28;20065;-66
2022/09/11 01:55:18;;;;;;;24.75;15.85;;;;;;;;;;5021294;28;20388;-65
2022/09/11 01:57:54;;;;;;;29.95;16.80;;;;;;;;;;5041194;28;20048;-66
2022/09/11 02:00:21;;;;;;;27.85;16.65;;;;;;;;;;5024841;28;20053;-66
2022/09/11 02:02:59;;;;;;;36.20;17.00;;;;;;;;;;5038613;28;20041;-66
2022/09/11 02:05:28;;;;;;;32.50;17.70;;;;;;;;;;5033918;28;20037;-66
2022/09/11 02:08:06;;;;;;;29.80;16.77;;;;;;;;;;5038670;28;20122;-66
2022/09/11 02:10:35;;;;;;;43.42;17.15;;;;;;;;;;5023368;28;20033;-66
2022/09/11 02:13:28;;;;;;;37.22;17.83;;;;;;;;;;5022180;28;20107;-66
2022/09/11 02:15:58;;;;;;;32.13;17.02;;;;;;;;;;5015509;28;20057;-66
2022/09/11 02:18:43;;;;;;;40.95;17.65;;;;;;;;;;5010101;28;20049;-66
2022/09/11 02:21:09;;;;;;;30.17;17.80;;;;;;;;;;5028026;28;20454;-66
2022/09/11 02:23:35;;;;;;;33.88;17.58;;;;;;;;;;5033875;28;20081;-66
2022/09/11 02:26:01;;;;;;;23.83;16.70;;;;;;;;;;5027009;28;20136;-65
2022/09/11 02:28:28;;;;;;;31.63;16.95;;;;;;;;;;5011435;28;20042;-65
2022/09/11 02:30:54;;;;;;;45.55;17.13;;;;;;;;;;5025954;28;20033;-66
2022/09/11 02:33:30;;;;;;;31.10;16.58;;;;;;;;;;5028077;28;20072;-65
2022/09/11 02:36:02;;;;;;;31.15;17.42;;;;;;;;;;5028814;28;20063;-66
2022/09/11 02:38:34;;;;;;;25.60;16.15;;;;;;;;;;5029384;28;20033;-65
2022/09/11 02:41:11;;;;;;;23.80;16.10;;;;;;;;;;5036504;28;20045;-66
2022/09/11 02:43:52;;;;;;;23.52;16.67;;;;;;;;;;5021084;28;20042;-66
2022/09/11 02:46:24;;;;;;;25.08;16.60;;;;;;;;;;5030690;28;20037;-66
2022/09/11 02:48:50;;;;;;;22.50;16.13;;;;;;;;;;5017401;28;20045;-66
2022/09/11 02:51:16;;;;;;;26.85;15.85;;;;;;;;;;5030628;28;20036;-66
2022/09/11 02:53:48;;;;;;;24.48;16.05;;;;;;;;;;5028127;28;20442;-65
2022/09/11 02:56:28;;;;;;;25.25;15.32;;;;;;;;;;5020735;28;20064;-66
2022/09/11 02:59:00;;;;;;;22.30;16.77;;;;;;;;;;5025643;28;20050;-65
2022/09/11 03:01:26;;;;;;;24.13;16.20;;;;;;;;;;5030095;28;20049;-66
2022/09/11 03:03:52;;;;;;;27.15;15.73;;;;;;;;;;5009568;28;20453;-65
2022/09/11 03:06:23;;;;;;;27.70;16.30;;;;;;;;;;5032264;28;20037;-65
2022/09/11 03:08:49;;;;;;;33.03;17.42;;;;;;;;;;5015376;28;20044;-66
2022/09/11 03:11:16;;;;;;;27.48;16.58;;;;;;;;;;5021711;28;20030;-66
2022/09/11 03:13:42;;;;;;;33.50;16.15;;;;;;;;;;5023223;28;20415;-66
2022/09/11 03:16:08;;;;;;;24.75;16.48;;;;;;;;;;5023800;28;20046;-66
2022/09/11 03:18:35;;;;;;;32.08;16.52;;;;;;;;;;5007792;28;20399;-66
2022/09/11 03:21:02;;;;;;;25.35;15.63;;;;;;;;;;5030240;28;20037;-66
2022/09/11 03:23:28;;;;;;;53.63;17.92;;;;;;;;;;5038851;28;20115;-65
2022/09/11 03:25:54;;;;;;;31.13;16.77;;;;;;;;;;5030652;28;20069;-66
2022/09/11 03:28:21;;;;;;;37.90;16.77;;;;;;;;;;5024797;28;20034;-66
2022/09/11 03:30:48;;;;;;;63.85;17.00;;;;;;;;;;5015843;28;20100;-66
2022/09/11 03:33:16;;;;;;;43.58;16.80;;;;;;;;;;5024990;28;20064;-65
2022/09/11 03:35:42;;;;;;;49.47;16.17;;;;;;;;;;5022781;28;20049;-65
2022/09/11 03:38:08;;;;;;;40.20;16.50;;;;;;;;;;5013462;28;20053;-65
2022/09/11 03:40:34;;;;;;;85.90;17.33;;;;;;;;;;5048293;28;20040;-66
2022/09/11 03:43:01;;;;;;;48.40;15.30;;;;;;;;;;5038404;28;20042;-65
2022/09/11 03:45:27;;;;;;;44.20;15.43;;;;;;;;;;5026016;28;20057;-65
2022/09/11 03:47:54;;;;;;;43.50;14.70;;;;;;;;;;5033442;28;20045;-66
2022/09/11 03:50:20;;;;;;;31.88;15.32;;;;;;;;;;5030282;28;20041;-66
2022/09/11 03:52:47;;;;;;;32.80;13.57;;;;;;;;;;5021721;28;20135;-66
2022/09/11 03:55:13;;;;;;;29.23;14.75;;;;;;;;;;5015736;28;20057;-66
2022/09/11 03:57:39;;;;;;;18.13;12.90;;;;;;;;;;5028413;28;20045;-66
2022/09/11 04:00:05;;;;;;;19.95;13.30;;;;;;;;;;5033075;28;20049;-66
2022/09/11 04:02:31;;;;;;;53.63;15.63;;;;;;;;;;5021888;28;20041;-66
2022/09/11 04:04:57;;;;;;;36.78;13.98;;;;;;;;;;5013463;28;20084;-66
2022/09/11 04:07:24;;;;;;;54.90;14.75;;;;;;;;;;5009150;28;20069;-66
2022/09/11 04:09:50;;;;;;;48.05;14.60;;;;;;;;;;5025329;28;20531;-65
2022/09/11 04:12:16;;;;;;;75.38;15.00;;;;;;;;;;5010940;28;20052;-65
2022/09/11 04:14:42;;;;;;;27.63;13.88;;;;;;;;;;5019601;28;20041;-66
2022/09/11 04:17:08;;;;;;;29.02;13.73;;;;;;;;;;5030053;28;20048;-66
2022/09/11 04:19:34;;;;;;;76.50;14.82;;;;;;;;;;5031994;28;20431;-66
2022/09/11 04:22:00;;;;;;;59.15;14.10;;;;;;;;;;5041145;28;20152;-65
2022/09/11 04:24:26;;;;;;;54.22;14.20;;;;;;;;;;5027888;28;20124;-66
2022/09/11 04:26:52;;;;;;;43.88;13.27;;;;;;;;;;5022623;28;20063;-65
2022/09/11 04:29:19;;;;;;;50.20;13.02;;;;;;;;;;5026177;28;20031;-65
2022/09/11 04:31:45;;;;;;;34.70;12.75;;;;;;;;;;5018357;28;20487;-66
2022/09/11 04:34:11;;;;;;;25.35;11.82;;;;;;;;;;5031731;28;20503;-65
2022/09/11 04:36:38;;;;;;;15.75;11.73;;;;;;;;;;5045470;28;20126;-65
2022/09/11 04:39:04;;;;;;;18.35;11.32;;;;;;;;;;5031644;28;20087;-65
2022/09/11 04:41:30;;;;;;;15.93;11.80;;;;;;;;;;5023040;28;20030;-65
2022/09/11 04:43:57;;;;;;;15.63;11.90;;;;;;;;;;5027279;28;20557;-65
2022/09/11 04:46:24;;;;;;;18.52;11.85;;;;;;;;;;5023390;28;20038;-66
2022/09/11 04:48:51;;;;;;;13.38;11.00;;;;;;;;;;5026139;28;20484;-65
2022/09/11 04:51:22;;;;;;;15.18;11.55;;;;;;;;;;5012160;28;20033;-66
2022/09/11 04:53:48;;;;;;;;;;;;;;;;;;5043093;22;20561;-68
2022/09/11 04:56:14;;;;;;;14.90;11.48;;;;;;;;;;5028961;28;19920;-67
2022/09/11 04:58:41;;;;;;;17.27;13.02;;;;;;;;;;5028833;28;20045;-68
2022/09/11 05:01:12;;;;;;;16.08;12.65;;;;;;;;;;5034157;28;20103;-68
2022/09/11 05:03:38;;;;;;;16.35;12.50;;;;;;;;;;5037755;28;20403;-68
2022/09/11 05:06:09;;;;;;;13.70;11.43;;;;;;;;;;5039701;28;20095;-68
2022/09/11 05:08:38;;;;;;;15.68;12.23;;;;;;;;;;5025226;28;20083;-67
2022/09/11 05:11:04;;;;;;;14.02;11.27;;;;;;;;;;5038772;28;20037;-68
2022/09/11 05:13:32;;;;;;;14.32;11.65;;;;;;;;;;5037972;28;20995;-67
2022/09/11 05:16:01;;;;;;;13.45;10.00;;;;;;;;;;5052446;28;20056;-67
2022/09/11 05:18:28;;;;;;;15.88;11.23;;;;;;;;;;5040518;28;20079;-68
2022/09/11 05:21:05;;;;;;;11.75;10.30;;;;;;;;;;5050322;28;20482;-67
2022/09/11 05:23:31;;;;;;;16.15;11.57;;;;;;;;;;5031216;28;20511;-68
2022/09/11 05:26:04;;;;;;;19.38;13.07;;;;;;;;;;5034962;28;20043;-68
2022/09/11 05:28:31;;;;;;;34.33;14.23;;;;;;;;;;5026283;28;20040;-67
2022/09/11 05:30:57;;;;;;;21.95;13.55;;;;;;;;;;5030512;28;20522;-67
2022/09/11 05:33:24;;;;;;;18.00;13.18;;;;;;;;;;5028704;28;20033;-67
2022/09/11 05:35:50;;;;;;;20.35;12.70;;;;;;;;;;5051544;28;20052;-67
2022/09/11 05:38:17;;;;;;;23.27;13.55;;;;;;;;;;5041453;28;20029;-67
2022/09/11 05:40:44;;;;;;;17.55;13.13;;;;;;;;;;5029010;28;20407;-67
2022/09/11 05:43:11;;;;;;;45.80;14.35;;;;;;;;;;5030556;28;20115;-67
2022/09/11 05:45:37;;;;;;;33.63;14.13;;;;;;;;;;5037365;28;20036;-68
2022/09/11 05:48:03;;;;;;;28.17;13.90;;;;;;;;;;5036129;28;20549;-67
2022/09/11 05:50:31;;;;;;;26.35;13.93;;;;;;;;;;5051766;28;20037;-68
2022/09/11 05:52:57;;;;;;;19.90;13.35;;;;;;;;;;5041808;28;20037;-67
2022/09/11 05:55:23;;;;;;;37.33;13.85;;;;;;;;;;5041191;28;20048;-67
2022/09/11 05:57:51;;;;;;;21.05;11.80;;;;;;;;;;5038128;28;20033;-67
2022/09/11 06:00:17;;;;;;;25.92;12.65;;;;;;;;;;5034736;28;20635;-67
2022/09/11 06:02:44;;;;;;;16.95;11.45;;;;;;;;;;5036535;28;20501;-67
2022/09/11 06:05:10;;;;;;;19.20;12.63;;;;;;;;;;5038272;28;20092;-67
2022/09/11 06:07:36;;;;;;;22.13;12.30;;;;;;;;;;5039135;28;20437;-67
2022/09/11 06:10:02;;;;;;;16.92;11.38;;;;;;;;;;5035135;28;20041;-67
2022/09/11 06:12:28;;;;;;;14.82;12.05;;;;;;;;;;5039750;28;20368;-67
2022/09/11 06:14:54;;;;;;;15.77;12.32;;;;;;;;;;5030549;28;20048;-67
2022/09/11 06:17:20;;;;;;;17.08;13.13;;;;;;;;;;5031072;28;20037;-67
2022/09/11 06:19:46;;;;;;;13.45;11.90;;;;;;;;;;5024924;28;20048;-67
2022/09/11 06:22:13;;;;;;;14.45;12.63;;;;;;;;;;5027758;28;20037;-68
2022/09/11 06:24:39;;;;;;;14.63;11.93;;;;;;;;;;5033548;28;20048;-67
2022/09/11 06:27:05;;;;;;;15.75;12.82;;;;;;;;;;5039358;28;20080;-67
2022/09/11 06:29:31;;;;;;;16.27;12.38;;;;;;;;;;5042544;28;20064;-68
2022/09/11 06:31:58;;;;;;;14.30;11.60;;;;;;;;;;5035068;28;20041;-68
2022/09/11 06:34:25;;;;;;;14.18;11.80;;;;;;;;;;5030262;28;20049;-67
2022/09/11 06:36:52;;;;;;;17.05;13.57;;;;;;;;;;5042201;28;20097;-67
2022/09/11 06:39:25;;;;;;;15.57;12.85;;;;;;;;;;5037414;28;20175;-67
2022/09/11 06:41:52;;;;;;;15.23;12.75;;;;;;;;;;5048872;28;20041;-67
2022/09/11 06:44:19;;;;;;;14.75;12.13;;;;;;;;;;5044056;28;20045;-67
2022/09/11 06:46:45;;;;;;;17.90;13.00;;;;;;;;;;5044363;28;20040;-68
2022/09/11 06:49:11;;;;;;;18.02;13.82;;;;;;;;;;5044746;28;20129;-67
2022/09/11 06:51:38;;;;;;;17.70;13.15;;;;;;;;;;5050591;28;20595;-68
2022/09/11 06:54:05;;;;;;;15.73;13.20;;;;;;;;;;5039550;28;20502;-68
2022/09/11 06:56:31;;;;;;;15.75;12.98;;;;;;;;;;5039621;28;20558;-67
2022/09/11 06:58:57;;;;;;;17.38;13.43;;;;;;;;;;5038663;28;20041;-68
2022/09/11 07:01:24;;;;;;;18.27;13.50;;;;;;;;;;5039129;28;20094;-67
2022/09/11 07:03:51;;;;;;;17.02;13.85;;;;;;;;;;5024086;28;20045;-68
2022/09/11 07:06:19;;;;;;;15.82;13.07;;;;;;;;;;5035323;28;20052;-68
2022/09/11 07:08:51;;;;;;;19.45;14.45;;;;;;;;;;5035155;28;20063;-68
2022/09/11 07:11:17;;;;;;;20.92;15.25;;;;;;;;;;5033325;28;20066;-68
2022/09/11 07:13:43;;;;;;;18.55;14.88;;;;;;;;;;5033247;28;20061;-67
2022/09/11 07:16:11;;;;;;;19.42;14.68;;;;;;;;;;5042321;28;20053;-68
2022/09/11 07:18:38;;;;;;;19.17;14.80;;;;;;;;;;5036820;28;20502;-67
2022/09/11 07:21:10;;;;;;;20.42;15.25;;;;;;;;;;5028047;28;20526;-68
2022/09/11 07:23:36;;;;;;;22.83;16.38;;;;;;;;;;5025879;28;20037;-67
2022/09/11 07:26:03;;;;;;;21.65;15.70;;;;;;;;;;5027934;28;20049;-67
2022/09/11 07:28:29;;;;;;;17.90;15.20;;;;;;;;;;5029392;28;20045;-68
2022/09/11 07:31:02;;;;;;;19.13;14.80;;;;;;;;;;5029506;28;20041;-68
2022/09/11 07:33:28;;;;;;;19.80;15.02;;;;;;;;;;5039601;28;20101;-68
2022/09/11 07:35:54;;;;;;;22.70;15.60;;;;;;;;;;5039013;28;20178;-68
2022/09/11 07:38:20;;;;;;;20.88;15.98;;;;;;;;;;5034366;28;20041;-67
2022/09/11 07:40:46;;;;;;;20.98;15.00;;;;;;;;;;5041469;28;20033;-67
2022/09/11 07:43:12;;;;;;;26.52;16.00;;;;;;;;;;5046884;28;20037;-67
2022/09/11 07:45:38;;;;;;;20.50;15.05;;;;;;;;;;5043146;28;20540;-68
2022/09/11 07:48:05;;;;;;;17.33;14.50;;;;;;;;;;5032596;28;20164;-68
2022/09/11 07:50:32;;;;;;;18.83;14.80;;;;;;;;;;5014573;28;20048;-68
2022/09/11 07:52:58;;;;;;;19.45;14.10;;;;;;;;;;5041305;28;20037;-68
2022/09/11 07:55:25;;;;;;;21.40;15.00;;;;;;;;;;5006985;28;1068694;-68
2022/09/11 07:57:51;;;;;;;18.23;14.32;;;;;;;;;;5035739;28;20048;-68
2022/09/11 08:00:17;;;;;;;18.17;14.40;;;;;;;;;;5035071;28;20487;-68
2022/09/11 08:02:44;;;;;;;18.98;13.48;;;;;;;;;;5010247;28;20454;-68
2022/09/11 08:05:10;;;;;;;18.52;13.88;;;;;;;;;;5012524;28;20042;-68
2022/09/11 08:07:36;;;;;;;15.98;13.75;;;;;;;;;;5021520;28;20030;-68
2022/09/11 08:10:02;;;;;;;14.93;12.13;;;;;;;;;;5027650;28;20042;-68
2022/09/11 08:12:28;;;;;;;15.38;13.38;;;;;;;;;;5027392;28;20029;-68
2022/09/11 08:14:54;;;;;;;17.48;13.55;;;;;;;;;;5025649;28;20044;-68
2022/09/11 08:17:20;;;;;;;17.15;13.05;;;;;;;;;;5034536;28;20037;-68
2022/09/11 08:19:46;;;;;;;14.55;11.98;;;;;;;;;;5028928;28;20041;-68
2022/09/11 08:22:12;;;;;;;17.60;12.40;;;;;;;;;;5033710;28;20056;-68
2022/09/11 08:24:39;;;;;;;13.52;11.38;;;;;;;;;;5032605;28;20087;-69
2022/09/11 08:27:05;;;;;;;15.68;13.23;;;;;;;;;;5031898;28;20069;-69
2022/09/11 08:29:31;;;;;;;16.15;11.88;;;;;;;;;;5030192;28;20045;-66
2022/09/11 08:31:57;;;;;;;18.95;12.57;;;;;;;;;;5028039;28;20830;-66
2022/09/11 08:34:23;;;;;;;14.35;11.80;;;;;;;;;;5028016;28;20502;-66
2022/09/11 08:36:50;;;;;;;15.15;10.73;;;;;;;;;;5017915;28;20041;-66
2022/09/11 08:39:17;;;;;;;15.15;10.73;;;;;;;;;;5032125;28;20103;-67
2022/09/11 08:41:52;;;;;;;12.52;9.65;;;;;;;;;;5007510;28;20072;-67
2022/09/11 08:44:21;;;;;;;13.02;10.52;;;;;;;;;;5031923;28;20465;-66
2022/09/11 08:46:53;;;;;;;11.23;8.77;;;;;;;;;;5009788;28;20033;-66
2022/09/11 08:49:25;;;;;;;13.98;9.95;;;;;;;;;;5027595;28;20560;-66
2022/09/11 08:51:53;;;;;;;11.68;8.85;;;;;;;;;;5027747;28;20045;-66
2022/09/11 08:54:25;;;;;;;9.63;8.50;;;;;;;;;;5025835;28;20041;-66
2022/09/11 08:56:52;;;;;;;12.30;8.73;;;;;;;;;;5023712;28;20045;-66
2022/09/11 08:59:21;;;;;;;11.70;9.13;;;;;;;;;;5028908;28;20045;-66
2022/09/11 09:01:55;;;;;;;12.05;9.15;;;;;;;;;;5018894;28;20045;-66
2022/09/11 09:04:41;;;;;;;9.93;8.07;;;;;;;;;;5025626;28;20048;-66
2022/09/11 09:07:25;;;;;;;10.68;6.82;;;;;;;;;;5041883;28;20121;-65
2022/09/11 09:10:13;;;;;;;9.32;7.38;;;;;;;;;;5031290;28;20151;-66
2022/09/11 09:12:53;;;;;;;8.93;6.55;;;;;;;;;;5018853;28;20033;-66
2022/09/11 09:15:26;;;;;;;7.22;6.00;;;;;;;;;;5030687;28;20041;-66
2022/09/11 09:17:59;;;;;;;9.95;6.35;;;;;;;;;;5047140;28;20055;-66
2022/09/11 09:20:33;;;;;;;8.20;6.05;;;;;;;;;;5045533;28;20048;-66
2022/09/11 09:23:17;;;;;;;9.48;6.20;;;;;;;;;;5028240;28;20080;-66
2022/09/11 09:25:44;;;;;;;10.32;5.65;;;;;;;;;;5012825;28;20232;-66
2022/09/11 09:28:24;;;;;;;6.25;4.55;;;;;;;;;;5042731;28;20037;-66
2022/09/11 09:30:50;;;;;;;8.07;4.97;;;;;;;;;;5043848;28;20037;-66
2022/09/11 09:33:16;;;;;;;6.55;4.65;;;;;;;;;;5027097;28;20071;-66
2022/09/11 09:35:43;;;;;;;6.53;4.63;;;;;;;;;;5025168;28;20154;-66
2022/09/11 09:38:12;;;;;;;4.22;3.55;;;;;;;;;;5026941;28;20500;-66
2022/09/11 09:40:41;;;;;;;5.82;3.50;;;;;;;;;;5031831;28;20037;-66
2022/09/11 09:43:13;;;;;;;8.75;4.47;;;;;;;;;;5030975;28;20119;-66
2022/09/11 09:45:47;;;;;;;9.13;4.03;;;;;;;;;;5040699;28;20037;-66
2022/09/11 09:48:13;;;;;;;6.03;4.55;;;;;;;;;;5048557;28;20047;-67
2022/09/11 09:50:41;;;;;;;7.53;4.57;;;;;;;;;;5045492;28;20161;-66
2022/09/11 09:53:14;;;;;;;5.80;3.72;;;;;;;;;;5043412;28;20503;-66
2022/09/11 09:55:40;;;;;;;6.95;4.70;;;;;;;;;;5018902;28;20077;-65
2022/09/11 09:58:06;;;;;;;6.32;3.40;;;;;;;;;;5034104;28;20045;-66
2022/09/11 10:00:40;;;;;;;6.25;3.35;;;;;;;;;;5084078;27;20409;-64
2022/09/11 10:03:32;;;;;;;6.03;2.75;;;;;;;;;;5086817;28;20044;-64
2022/09/11 10:05:59;;;;;;;5.13;3.55;;;;;;;;;;5081238;28;20541;-66
2022/09/11 10:08:25;;;;;;;4.88;2.72;;;;;;;;;;5084792;28;20138;-66
2022/09/11 10:11:12;;;;;;;4.72;3.30;;;;;;;;;;5082008;28;20059;-66
2022/09/11 10:13:40;;;;;;;5.65;3.70;;;;;;;;;;5078793;28;20502;-65
2022/09/11 10:16:19;;;;;;;6.53;3.22;;;;;;;;;;5087991;28;20048;-66
2022/09/11 10:18:46;;;;;;;5.07;3.35;;;;;;;;;;5087692;28;20099;-66
2022/09/11 10:21:11;;;;;;;6.05;3.10;;;;;;;;;;5085353;28;20130;-66
2022/09/11 10:23:54;;;;;;;5.57;3.13;;;;;;;;;;5088150;28;20115;-66
2022/09/11 10:26:29;;;;;;;5.07;2.63;;;;;;;;;;5084862;28;20032;-66
2022/09/11 10:28:58;;;;;;;3.50;2.42;;;;;;;;;;5085260;28;20082;-65
2022/09/11 10:31:25;;;;;;;5.82;2.33;;;;;;;;;;5087798;28;20072;-65
2022/09/11 10:33:54;;;;;;;4.97;2.47;;;;;;;;;;5088103;28;20052;-65
2022/09/11 10:36:24;;;;;;;5.28;3.15;;;;;;;;;;5084287;28;20059;-65
2022/09/11 10:38:51;;;;;;;4.22;2.85;;;;;;;;;;5080438;28;20052;-66
2022/09/11 10:41:23;;;;;;;4.72;3.45;;;;;;;;;;5084196;28;20047;-65
2022/09/11 10:44:01;;;;;;;6.03;3.85;;;;;;;;;;5084229;28;20040;-65
2022/09/11 10:46:33;;;;;;;7.38;4.90;;;;;;;;;;5080547;28;20056;-65
2022/09/11 10:48:59;;;;;;;5.60;4.50;;;;;;;;;;5083739;28;20044;-65
2022/09/11 10:51:27;;;;;;;3.90;3.47;;;;;;;;;;5081116;28;20032;-65
2022/09/11 10:53:52;;;;;;;6.05;3.67;;;;;;;;;;5085447;28;20028;-67
2022/09/11 10:56:19;;;;;;;5.45;3.03;;;;;;;;;;5055594;22;20049;-64
2022/09/11 10:58:47;;;;;;;6.93;4.00;;;;;;;;;;5043738;28;20041;-65
2022/09/11 11:01:14;;;;;;;6.13;4.05;;;;;;;;;;5045284;28;20128;-64
2022/09/11 11:03:40;;;;;;;7.53;4.00;;;;;;;;;;5046850;28;20533;-65
2022/09/11 11:06:06;;;;;;;7.35;3.85;;;;;;;;;;5047218;28;20053;-64
2022/09/11 11:08:47;;;;;;;5.43;3.90;;;;;;;;;;5045510;28;20044;-65
2022/09/11 11:11:13;;;;;;;;;;;;;;;;;;5038400;28;20037;-65
2022/09/11 11:13:44;;;;;;;5.40;3.60;;;;;;;;;;5031063;28;19917;-65
2022/09/11 11:16:10;;;;;;;;;;;;;;;;;;5033777;28;20123;-64
2022/09/11 11:18:42;;;;;;;7.72;3.42;;;;;;;;;;5032100;28;19987;-65
2022/09/11 11:21:17;;;;;;;5.93;4.00;;;;;;;;;;5033665;28;20510;-65
2022/09/11 11:23:43;;;;;;;6.78;4.15;;;;;;;;;;5031140;28;20041;-65
2022/09/11 11:26:21;;;;;;;5.03;3.45;;;;;;;;;;5032388;28;20037;-64
2022/09/11 11:29:13;;;;;;;5.85;3.53;;;;;;;;;;5032903;28;20048;-65
2022/09/11 11:32:06;;;;;;;5.43;3.58;;;;;;;;;;5031973;28;20041;-65
2022/09/11 11:34:35;;;;;;;4.75;4.18;;;;;;;;;;5031315;28;20049;-65
2022/09/11 11:37:11;;;;;;;8.38;5.65;;;;;;;;;;5031399;28;20076;-65
2022/09/11 11:39:57;;;;;;;7.13;5.25;;;;;;;;;;5025123;28;20037;-65
2022/09/11 11:42:23;;;;;;;5.88;4.25;;;;;;;;;;5032230;28;20076;-65
2022/09/11 11:45:02;;;;;;;6.85;3.95;;;;;;;;;;5033007;28;20486;-65
2022/09/11 11:47:30;;;;;;;4.70;3.35;;;;;;;;;;5032458;28;20055;-65
2022/09/11 11:49:56;;;;;;;7.95;3.65;;;;;;;;;;5031587;28;20041;-66
2022/09/11 11:52:49;;;;;;;11.65;6.25;;;;;;;;;;5030103;28;20046;-65
2022/09/11 11:55:17;;;;;;;5.75;4.95;;;;;;;;;;5016654;28;20060;-66
2022/09/11 11:58:15;;;;;;;7.40;4.30;;;;;;;;;;5030354;28;20051;-66
2022/09/11 12:00:45;;;;;;;5.53;3.33;;;;;;;;;;4990754;28;20111;-66
2022/09/11 12:03:24;;;;;;;6.65;4.10;;;;;;;;;;5031067;28;20049;-66
2022/09/11 12:05:50;;;;;;;5.43;3.55;;;;;;;;;;5032512;28;20041;-66
2022/09/11 12:08:16;;;;;;;6.43;3.08;;;;;;;;;;5027706;28;20491;-66
2022/09/11 12:10:55;;;;;;;4.53;2.40;;;;;;;;;;5028501;28;20041;-66
2022/09/11 12:13:24;;;;;;;4.75;2.40;;;;;;;;;;5032599;28;20084;-66
2022/09/11 12:16:07;;;;;;;3.88;2.80;;;;;;;;;;5030472;28;20042;-66
2022/09/11 12:18:33;;;;;;;4.53;2.42;;;;;;;;;;5022417;28;20045;-66
2022/09/11 12:21:18;;;;;;;3.50;2.60;;;;;;;;;;5030822;28;20411;-66
2022/09/11 12:23:46;;;;;;;6.07;2.80;;;;;;;;;;5011161;28;20042;-66
2022/09/11 12:26:20;;;;;;;5.32;2.10;;;;;;;;;;5012330;28;20053;-66
2022/09/11 12:28:47;;;;;;;3.88;2.33;;;;;;;;;;5015324;28;20190;-66
2022/09/11 12:31:17;;;;;;;4.40;2.38;;;;;;;;;;5026806;28;20099;-66
2022/09/11 12:33:43;;;;;;;4.75;2.70;;;;;;;;;;5029216;28;20056;-66
2022/09/11 12:36:18;;;;;;;5.03;2.58;;;;;;;;;;5030062;28;20399;-66
2022/09/11 12:38:50;;;;;;;6.70;2.55;;;;;;;;;;5023866;28;20055;-66
2022/09/11 12:41:36;;;;;;;4.25;2.63;;;;;;;;;;5027253;28;20562;-66
2022/09/11 12:44:03;;;;;;;6.15;2.60;;;;;;;;;;5023554;28;20099;-66
2022/09/11 12:46:29;;;;;;;5.18;2.80;;;;;;;;;;5029997;28;20041;-66
2022/09/11 12:49:04;;;;;;;3.63;2.10;;;;;;;;;;5028514;28;20052;-66
2022/09/11 12:51:30;;;;;;;2.78;1.90;;;;;;;;;;5026478;28;20452;-66
2022/09/11 12:53:59;;;;;;;2.47;2.25;;;;;;;;;;5024400;28;20065;-65
2022/09/11 12:56:26;;;;;;;2.95;2.20;;;;;;;;;;5027794;28;20029;-65
2022/09/11 12:59:00;;;;;;;3.58;2.10;;;;;;;;;;5021766;28;20059;-66
2022/09/11 13:01:31;;;;;;;3.40;2.00;;;;;;;;;;5025471;28;20107;-65
2022/09/11 13:04:00;;;;;;;4.85;1.95;;;;;;;;;;5024602;28;20037;-66
2022/09/11 13:06:46;;;;;;;4.50;2.25;;;;;;;;;;5028484;28;20104;-66
2022/09/11 13:09:32;;;;;;;3.80;2.03;;;;;;;;;;5026864;28;20498;-66
2022/09/11 13:12:17;;;;;;;4.28;2.45;;;;;;;;;;5026399;28;20040;-65
2022/09/11 13:14:45;;;;;;;5.03;2.08;;;;;;;;;;5027602;28;20033;-65
2022/09/11 13:17:22;;;;;;;5.28;2.40;;;;;;;;;;5029389;28;20099;-65
2022/09/11 13:19:49;;;;;;;5.15;2.47;;;;;;;;;;5023335;28;20072;-65
2022/09/11 13:22:20;;;;;;;6.88;2.20;;;;;;;;;;5041875;28;20045;-65
2022/09/11 13:24:46;;;;;;;3.33;2.33;;;;;;;;;;5024472;28;20152;-65
2022/09/11 13:27:23;;;;;;;3.13;2.28;;;;;;;;;;5016088;28;21131;-66
2022/09/11 13:29:49;;;;;;;3.30;2.20;;;;;;;;;;5026843;28;20046;-66
2022/09/11 13:32:16;;;;;;;4.20;2.03;;;;;;;;;;5028695;28;20049;-65
2022/09/11 13:34:43;;;;;;;4.75;2.08;;;;;;;;;;5029158;28;20041;-66
2022/09/11 13:37:14;;;;;;;5.60;2.30;;;;;;;;;;5027985;28;20087;-65
2022/09/11 13:39:42;;;;;;;3.15;2.10;;;;;;;;;;5028447;28;20052;-65
2022/09/11 13:42:15;;;;;;;4.05;2.25;;;;;;;;;;5028059;28;20518;-66
2022/09/11 13:44:41;;;;;;;5.57;2.33;;;;;;;;;;5028246;28;20476;-65
2022/09/11 13:47:19;;;;;;;3.15;2.10;;;;;;;;;;5027118;28;20045;-66
2022/09/11 13:49:46;;;;;;;4.43;2.10;;;;;;;;;;5030685;28;20509;-66
2022/09/11 13:52:12;;;;;;;3.33;2.13;;;;;;;;;;5029910;28;20415;-66
2022/09/11 13:54:49;;;;;;;5.05;2.60;;;;;;;;;;5028939;28;20094;-65
2022/09/11 13:57:15;;;;;;;2.83;2.20;;;;;;;;;;5030780;28;20072;-66
2022/09/11 13:59:53;;;;;;;4.65;2.00;;;;;;;;;;5030421;28;20464;-66
2022/09/11 14:02:22;;;;;;;4.45;2.50;;;;;;;;;;5029116;28;20041;-65
2022/09/11 14:04:51;;;;;;;3.28;2.85;;;;;;;;;;5028252;28;20051;-66
2022/09/11 14:07:24;;;;;;;4.53;2.63;;;;;;;;;;5030567;28;20084;-66
2022/09/11 14:09:58;;;;;;;5.15;2.50;;;;;;;;;;5030664;28;20128;-66
2022/09/11 14:12:24;;;;;;;3.90;2.70;;;;;;;;;;5030298;28;20466;-66
2022/09/11 14:14:53;;;;;;;3.58;2.90;;;;;;;;;;5031038;28;20049;-65
2022/09/11 14:17:19;;;;;;;3.58;2.65;;;;;;;;;;5028882;28;20390;-65
2022/09/11 14:19:46;;;;;;;3.15;2.45;;;;;;;;;;5029178;28;20137;-66
2022/09/11 14:22:16;;;;;;;5.15;2.67;;;;;;;;;;5029319;28;20060;-66
2022/09/11 14:25:08;;;;;;;5.15;2.55;;;;;;;;;;5031180;28;20087;-66
2022/09/11 14:27:36;;;;;;;4.07;2.58;;;;;;;;;;5013819;28;20111;-65
2022/09/11 14:30:22;;;;;;;4.00;2.55;;;;;;;;;;5030381;28;20049;-66
2022/09/11 14:33:05;;;;;;;3.83;2.28;;;;;;;;;;5030098;28;20537;-66
2022/09/11 14:35:32;;;;;;;5.95;2.95;;;;;;;;;;5028953;28;20041;-65
2022/09/11 14:37:58;;;;;;;3.63;2.38;;;;;;;;;;5030555;28;20511;-66
2022/09/11 14:40:24;;;;;;;6.55;2.22;;;;;;;;;;5030369;28;20049;-66
2022/09/11 14:42:50;;;;;;;4.40;2.30;;;;;;;;;;5030621;28;20083;-66